sensor_id;sensor_type;location;lat;lon;timestamp;P1;durP1;ratioP1;P2;durP2;ratioP2
11427;SDS011;5770;44.504;11.346;2022-08-19T00:00:46;42.80;;;9.48;;
11427;SDS011;5770;44.504;11.346;2022-08-19T00:03:13;15.48;;;7.47;;
11427;SDS011;5770;44.504;11.346;2022-08-19T00:05:42;11.02;;;6.85;;
11427;SDS011;5770;44.504;11.346;2022-08-19T00:08:09;11.65;;;7.05;;
11427;SDS011;5770;44.504;11.346;2022-08-19T00:10:36;9.38;;;6.65;;
11427;SDS011;5770;44.504;11.346;2022-08-19T00:13:03;14.10;;;7.70;;
11427;SDS011;5770;44.504;11.346;2022-08-19T00:15:30;10.68;;;7.60;;
11427;SDS011;5770;44.504;11.346;2022-08-19T00:17:58;11.38;;;6.88;;
11427;SDS011;5770;44.504;11.346;2022-08-19T00:20:25;13.25;;;7.68;;
11427;SDS011;5770;44.504;11.346;2022-08-19T00:22:53;12.02;;;6.60;;
11427;SDS011;5770;44.504;11.346;2022-08-19T00:25:20;10.43;;;6.68;;
11427;SDS011;5770;44.504;11.346;2022-08-19T00:27:48;10.95;;;7.43;;
11427;SDS011;5770;44.504;11.346;2022-08-19T00:30:15;8.70;;;6.57;;
11427;SDS011;5770;44.504;11.346;2022-08-19T00:32:42;11.82;;;6.47;;
11427;SDS011;5770;44.504;11.346;2022-08-19T00:35:09;12.57;;;7.63;;
11427;SDS011;5770;44.504;11.346;2022-08-19T00:37:37;12.75;;;6.22;;
11427;SDS011;5770;44.504;11.346;2022-08-19T00:40:10;6.65;;;5.35;;
11427;SDS011;5770;44.504;11.346;2022-08-19T00:42:38;8.38;;;6.13;;
11427;SDS011;5770;44.504;11.346;2022-08-19T00:45:09;9.73;;;4.75;;
11427;SDS011;5770;44.504;11.346;2022-08-19T00:47:37;9.02;;;4.45;;
11427;SDS011;5770;44.504;11.346;2022-08-19T00:50:05;12.00;;;5.00;;
11427;SDS011;5770;44.504;11.346;2022-08-19T00:52:35;9.77;;;4.97;;
11427;SDS011;5770;44.504;11.346;2022-08-19T00:55:06;10.57;;;6.10;;
11427;SDS011;5770;44.504;11.346;2022-08-19T00:57:37;11.98;;;5.93;;
11427;SDS011;5770;44.504;11.346;2022-08-19T01:00:07;12.13;;;6.35;;
11427;SDS011;5770;44.504;11.346;2022-08-19T01:02:37;10.55;;;5.43;;
11427;SDS011;5770;44.504;11.346;2022-08-19T01:05:06;8.00;;;4.90;;
11427;SDS011;5770;44.504;11.346;2022-08-19T01:07:35;7.93;;;4.85;;
11427;SDS011;5770;44.504;11.346;2022-08-19T01:10:06;10.25;;;5.63;;
11427;SDS011;5770;44.504;11.346;2022-08-19T01:12:36;8.45;;;4.18;;
11427;SDS011;5770;44.504;11.346;2022-08-19T01:15:05;11.07;;;4.72;;
11427;SDS011;5770;44.504;11.346;2022-08-19T01:17:35;10.00;;;4.40;;
11427;SDS011;5770;44.504;11.346;2022-08-19T01:20:04;10.48;;;4.10;;
11427;SDS011;5770;44.504;11.346;2022-08-19T01:22:37;8.63;;;4.05;;
11427;SDS011;5770;44.504;11.346;2022-08-19T01:25:09;10.73;;;4.10;;
11427;SDS011;5770;44.504;11.346;2022-08-19T01:27:37;10.90;;;3.80;;
11427;SDS011;5770;44.504;11.346;2022-08-19T01:30:06;14.73;;;4.47;;
11427;SDS011;5770;44.504;11.346;2022-08-19T01:32:35;8.32;;;3.95;;
11427;SDS011;5770;44.504;11.346;2022-08-19T01:35:02;8.02;;;4.07;;
11427;SDS011;5770;44.504;11.346;2022-08-19T01:37:40;12.02;;;3.67;;
11427;SDS011;5770;44.504;11.346;2022-08-19T01:40:10;10.40;;;4.13;;
11427;SDS011;5770;44.504;11.346;2022-08-19T01:42:37;7.53;;;3.70;;
11427;SDS011;5770;44.504;11.346;2022-08-19T01:45:06;7.65;;;4.15;;
11427;SDS011;5770;44.504;11.346;2022-08-19T01:47:34;9.02;;;4.03;;
11427;SDS011;5770;44.504;11.346;2022-08-19T01:50:02;9.10;;;3.78;;
11427;SDS011;5770;44.504;11.346;2022-08-19T01:52:34;9.13;;;3.83;;
11427;SDS011;5770;44.504;11.346;2022-08-19T01:55:03;7.75;;;4.25;;
11427;SDS011;5770;44.504;11.346;2022-08-19T01:57:39;7.93;;;4.28;;
11427;SDS011;5770;44.504;11.346;2022-08-19T02:00:13;9.88;;;4.10;;
11427;SDS011;5770;44.504;11.346;2022-08-19T02:02:42;13.57;;;4.05;;
11427;SDS011;5770;44.504;11.346;2022-08-19T02:05:09;10.50;;;4.43;;
11427;SDS011;5770;44.504;11.346;2022-08-19T02:07:38;13.35;;;4.47;;
11427;SDS011;5770;44.504;11.346;2022-08-19T02:10:08;7.72;;;4.40;;
11427;SDS011;5770;44.504;11.346;2022-08-19T02:12:37;7.53;;;4.00;;
11427;SDS011;5770;44.504;11.346;2022-08-19T02:15:04;13.77;;;4.50;;
11427;SDS011;5770;44.504;11.346;2022-08-19T02:17:32;9.35;;;4.10;;
11427;SDS011;5770;44.504;11.346;2022-08-19T02:19:59;10.95;;;4.25;;
11427;SDS011;5770;44.504;11.346;2022-08-19T02:22:26;8.85;;;4.70;;
11427;SDS011;5770;44.504;11.346;2022-08-19T02:24:54;9.07;;;4.03;;
11427;SDS011;5770;44.504;11.346;2022-08-19T02:27:23;11.38;;;4.68;;
11427;SDS011;5770;44.504;11.346;2022-08-19T02:29:50;10.75;;;5.03;;
11427;SDS011;5770;44.504;11.346;2022-08-19T02:32:18;14.73;;;5.20;;
11427;SDS011;5770;44.504;11.346;2022-08-19T02:34:45;10.75;;;5.22;;
11427;SDS011;5770;44.504;11.346;2022-08-19T02:37:12;10.05;;;4.72;;
11427;SDS011;5770;44.504;11.346;2022-08-19T02:39:53;10.18;;;5.22;;
11427;SDS011;5770;44.504;11.346;2022-08-19T02:42:20;8.20;;;4.75;;
11427;SDS011;5770;44.504;11.346;2022-08-19T02:44:49;10.35;;;5.20;;
11427;SDS011;5770;44.504;11.346;2022-08-19T02:47:16;9.43;;;4.72;;
11427;SDS011;5770;44.504;11.346;2022-08-19T02:49:44;10.18;;;5.20;;
11427;SDS011;5770;44.504;11.346;2022-08-19T02:52:11;9.77;;;5.55;;
11427;SDS011;5770;44.504;11.346;2022-08-19T02:54:39;9.52;;;5.10;;
11427;SDS011;5770;44.504;11.346;2022-08-19T02:57:06;11.30;;;5.82;;
11427;SDS011;5770;44.504;11.346;2022-08-19T02:59:34;11.57;;;5.40;;
11427;SDS011;5770;44.504;11.346;2022-08-19T03:02:01;12.18;;;4.78;;
11427;SDS011;5770;44.504;11.346;2022-08-19T03:04:29;11.70;;;5.65;;
11427;SDS011;5770;44.504;11.346;2022-08-19T03:06:56;12.27;;;5.80;;
11427;SDS011;5770;44.504;11.346;2022-08-19T03:09:23;12.07;;;5.55;;
11427;SDS011;5770;44.504;11.346;2022-08-19T03:11:50;12.48;;;5.38;;
11427;SDS011;5770;44.504;11.346;2022-08-19T03:14:17;11.38;;;5.15;;
11427;SDS011;5770;44.504;11.346;2022-08-19T03:16:46;8.48;;;4.30;;
11427;SDS011;5770;44.504;11.346;2022-08-19T03:19:15;17.65;;;4.68;;
11427;SDS011;5770;44.504;11.346;2022-08-19T03:21:44;15.18;;;5.28;;
11427;SDS011;5770;44.504;11.346;2022-08-19T03:24:12;10.55;;;5.45;;
11427;SDS011;5770;44.504;11.346;2022-08-19T03:26:41;12.32;;;4.65;;
11427;SDS011;5770;44.504;11.346;2022-08-19T03:29:12;7.53;;;4.70;;
11427;SDS011;5770;44.504;11.346;2022-08-19T03:31:40;15.27;;;4.85;;
11427;SDS011;5770;44.504;11.346;2022-08-19T03:34:10;8.65;;;4.57;;
11427;SDS011;5770;44.504;11.346;2022-08-19T03:36:38;13.77;;;4.25;;
11427;SDS011;5770;44.504;11.346;2022-08-19T03:39:05;9.00;;;4.45;;
11427;SDS011;5770;44.504;11.346;2022-08-19T03:41:42;14.68;;;4.55;;
11427;SDS011;5770;44.504;11.346;2022-08-19T03:44:10;14.02;;;4.57;;
11427;SDS011;5770;44.504;11.346;2022-08-19T03:46:37;11.48;;;4.40;;
11427;SDS011;5770;44.504;11.346;2022-08-19T03:49:04;12.77;;;4.75;;
11427;SDS011;5770;44.504;11.346;2022-08-19T03:51:34;11.40;;;4.65;;
11427;SDS011;5770;44.504;11.346;2022-08-19T03:54:04;16.55;;;4.93;;
11427;SDS011;5770;44.504;11.346;2022-08-19T03:56:33;12.40;;;4.97;;
11427;SDS011;5770;44.504;11.346;2022-08-19T03:59:01;11.05;;;4.53;;
11427;SDS011;5770;44.504;11.346;2022-08-19T04:01:30;10.80;;;4.78;;
11427;SDS011;5770;44.504;11.346;2022-08-19T04:03:57;11.02;;;4.65;;
11427;SDS011;5770;44.504;11.346;2022-08-19T04:06:26;13.45;;;5.65;;
11427;SDS011;5770;44.504;11.346;2022-08-19T04:08:56;11.88;;;5.10;;
11427;SDS011;5770;44.504;11.346;2022-08-19T04:11:26;13.48;;;5.18;;
11427;SDS011;5770;44.504;11.346;2022-08-19T04:16:26;17.20;;;5.25;;
11427;SDS011;5770;44.504;11.346;2022-08-19T04:18:53;12.05;;;4.80;;
11427;SDS011;5770;44.504;11.346;2022-08-19T04:21:22;14.75;;;5.05;;
11427;SDS011;5770;44.504;11.346;2022-08-19T04:23:51;15.70;;;5.10;;
11427;SDS011;5770;44.504;11.346;2022-08-19T04:26:21;13.07;;;5.20;;
11427;SDS011;5770;44.504;11.346;2022-08-19T04:28:50;15.98;;;5.13;;
11427;SDS011;5770;44.504;11.346;2022-08-19T04:31:19;19.77;;;5.90;;
11427;SDS011;5770;44.504;11.346;2022-08-19T04:33:51;16.45;;;5.88;;
11427;SDS011;5770;44.504;11.346;2022-08-19T04:36:19;16.50;;;5.38;;
11427;SDS011;5770;44.504;11.346;2022-08-19T04:38:47;11.70;;;5.22;;
11427;SDS011;5770;44.504;11.346;2022-08-19T04:41:15;16.05;;;5.68;;
11427;SDS011;5770;44.504;11.346;2022-08-19T04:44:02;15.98;;;5.07;;
11427;SDS011;5770;44.504;11.346;2022-08-19T04:46:30;15.93;;;5.85;;
11427;SDS011;5770;44.504;11.346;2022-08-19T04:48:58;12.65;;;5.15;;
11427;SDS011;5770;44.504;11.346;2022-08-19T04:51:25;14.05;;;5.00;;
11427;SDS011;5770;44.504;11.346;2022-08-19T04:53:53;13.20;;;5.50;;
11427;SDS011;5770;44.504;11.346;2022-08-19T04:56:20;16.00;;;5.93;;
11427;SDS011;5770;44.504;11.346;2022-08-19T04:58:47;14.32;;;5.90;;
11427;SDS011;5770;44.504;11.346;2022-08-19T05:01:19;16.38;;;5.93;;
11427;SDS011;5770;44.504;11.346;2022-08-19T05:03:48;10.43;;;5.25;;
11427;SDS011;5770;44.504;11.346;2022-08-19T05:06:15;14.57;;;5.47;;
11427;SDS011;5770;44.504;11.346;2022-08-19T05:08:44;20.33;;;5.90;;
11427;SDS011;5770;44.504;11.346;2022-08-19T05:11:13;17.77;;;5.90;;
11427;SDS011;5770;44.504;11.346;2022-08-19T05:13:43;11.60;;;5.55;;
11427;SDS011;5770;44.504;11.346;2022-08-19T05:16:11;16.67;;;5.63;;
11427;SDS011;5770;44.504;11.346;2022-08-19T05:18:40;12.82;;;5.55;;
11427;SDS011;5770;44.504;11.346;2022-08-19T05:21:25;14.02;;;5.90;;
11427;SDS011;5770;44.504;11.346;2022-08-19T05:24:10;20.35;;;6.00;;
11427;SDS011;5770;44.504;11.346;2022-08-19T05:26:39;18.45;;;6.47;;
11427;SDS011;5770;44.504;11.346;2022-08-19T05:29:08;15.35;;;5.82;;
11427;SDS011;5770;44.504;11.346;2022-08-19T05:31:36;21.35;;;6.82;;
11427;SDS011;5770;44.504;11.346;2022-08-19T05:34:06;17.17;;;6.35;;
11427;SDS011;5770;44.504;11.346;2022-08-19T05:36:35;18.05;;;6.53;;
11427;SDS011;5770;44.504;11.346;2022-08-19T05:39:04;26.80;;;9.30;;
11427;SDS011;5770;44.504;11.346;2022-08-19T05:41:32;24.25;;;8.63;;
11427;SDS011;5770;44.504;11.346;2022-08-19T05:44:00;19.42;;;7.65;;
11427;SDS011;5770;44.504;11.346;2022-08-19T05:46:31;21.05;;;9.55;;
11427;SDS011;5770;44.504;11.346;2022-08-19T05:48:58;14.10;;;7.03;;
11427;SDS011;5770;44.504;11.346;2022-08-19T05:51:26;38.22;;;7.97;;
11427;SDS011;5770;44.504;11.346;2022-08-19T05:53:53;27.45;;;8.95;;
11427;SDS011;5770;44.504;11.346;2022-08-19T05:56:20;21.92;;;7.88;;
11427;SDS011;5770;44.504;11.346;2022-08-19T05:58:47;17.58;;;7.47;;
11427;SDS011;5770;44.504;11.346;2022-08-19T06:01:15;7.38;;;3.60;;
11427;SDS011;5770;44.504;11.346;2022-08-19T06:03:44;9.52;;;3.40;;
11427;SDS011;5770;44.504;11.346;2022-08-19T06:06:13;4.55;;;2.60;;
11427;SDS011;5770;44.504;11.346;2022-08-19T06:08:42;4.68;;;2.35;;
11427;SDS011;5770;44.504;11.346;2022-08-19T06:11:17;5.25;;;2.10;;
11427;SDS011;5770;44.504;11.346;2022-08-19T06:13:47;6.35;;;2.60;;
11427;SDS011;5770;44.504;11.346;2022-08-19T06:16:16;10.85;;;3.55;;
11427;SDS011;5770;44.504;11.346;2022-08-19T06:18:45;6.13;;;3.03;;
11427;SDS011;5770;44.504;11.346;2022-08-19T06:21:13;7.65;;;3.17;;
11427;SDS011;5770;44.504;11.346;2022-08-19T06:23:40;4.22;;;2.60;;
11427;SDS011;5770;44.504;11.346;2022-08-19T06:26:12;5.88;;;2.63;;
11427;SDS011;5770;44.504;11.346;2022-08-19T06:28:39;5.95;;;3.03;;
11427;SDS011;5770;44.504;11.346;2022-08-19T06:31:08;5.80;;;3.00;;
11427;SDS011;5770;44.504;11.346;2022-08-19T06:33:35;5.43;;;2.78;;
11427;SDS011;5770;44.504;11.346;2022-08-19T06:36:04;7.80;;;3.03;;
11427;SDS011;5770;44.504;11.346;2022-08-19T06:38:32;6.97;;;2.50;;
11427;SDS011;5770;44.504;11.346;2022-08-19T06:41:00;6.03;;;2.55;;
11427;SDS011;5770;44.504;11.346;2022-08-19T06:43:29;7.63;;;2.22;;
11427;SDS011;5770;44.504;11.346;2022-08-19T06:45:56;4.32;;;2.60;;
11427;SDS011;5770;44.504;11.346;2022-08-19T06:48:26;7.28;;;3.30;;
11427;SDS011;5770;44.504;11.346;2022-08-19T06:50:53;9.73;;;3.08;;
11427;SDS011;5770;44.504;11.346;2022-08-19T06:53:20;7.13;;;2.97;;
11427;SDS011;5770;44.504;11.346;2022-08-19T06:55:47;7.03;;;3.47;;
11427;SDS011;5770;44.504;11.346;2022-08-19T06:58:27;6.88;;;2.88;;
11427;SDS011;5770;44.504;11.346;2022-08-19T07:00:58;4.25;;;2.65;;
11427;SDS011;5770;44.504;11.346;2022-08-19T07:03:28;6.25;;;3.20;;
11427;SDS011;5770;44.504;11.346;2022-08-19T07:05:57;5.38;;;2.80;;
11427;SDS011;5770;44.504;11.346;2022-08-19T07:08:28;4.97;;;2.90;;
11427;SDS011;5770;44.504;11.346;2022-08-19T07:10:55;6.53;;;2.50;;
11427;SDS011;5770;44.504;11.346;2022-08-19T07:13:22;5.30;;;2.53;;
11427;SDS011;5770;44.504;11.346;2022-08-19T07:15:51;3.45;;;2.00;;
11427;SDS011;5770;44.504;11.346;2022-08-19T07:18:18;3.03;;;1.48;;
11427;SDS011;5770;44.504;11.346;2022-08-19T07:20:46;2.30;;;1.50;;
11427;SDS011;5770;44.504;11.346;2022-08-19T07:23:13;1.70;;;1.23;;
11427;SDS011;5770;44.504;11.346;2022-08-19T07:25:40;1.98;;;1.60;;
11427;SDS011;5770;44.504;11.346;2022-08-19T07:28:08;2.80;;;1.65;;
11427;SDS011;5770;44.504;11.346;2022-08-19T07:30:36;4.03;;;1.50;;
11427;SDS011;5770;44.504;11.346;2022-08-19T07:33:07;4.15;;;1.40;;
11427;SDS011;5770;44.504;11.346;2022-08-19T07:35:34;2.80;;;1.40;;
11427;SDS011;5770;44.504;11.346;2022-08-19T07:38:01;6.15;;;1.67;;
11427;SDS011;5770;44.504;11.346;2022-08-19T07:40:31;3.33;;;1.27;;
11427;SDS011;5770;44.504;11.346;2022-08-19T07:42:58;2.83;;;1.40;;
11427;SDS011;5770;44.504;11.346;2022-08-19T07:45:25;1.60;;;1.30;;
11427;SDS011;5770;44.504;11.346;2022-08-19T07:47:52;3.55;;;1.50;;
11427;SDS011;5770;44.504;11.346;2022-08-19T07:50:21;1.83;;;1.20;;
11427;SDS011;5770;44.504;11.346;2022-08-19T07:52:48;2.75;;;1.67;;
11427;SDS011;5770;44.504;11.346;2022-08-19T07:55:18;2.83;;;1.50;;
11427;SDS011;5770;44.504;11.346;2022-08-19T07:57:47;3.13;;;1.20;;
11427;SDS011;5770;44.504;11.346;2022-08-19T08:00:14;1.33;;;1.20;;
11427;SDS011;5770;44.504;11.346;2022-08-19T08:02:41;1.58;;;1.00;;
11427;SDS011;5770;44.504;11.346;2022-08-19T08:05:09;2.80;;;1.38;;
11427;SDS011;5770;44.504;11.346;2022-08-19T08:07:55;2.20;;;1.35;;
11427;SDS011;5770;44.504;11.346;2022-08-19T08:10:39;1.25;;;1.15;;
11427;SDS011;5770;44.504;11.346;2022-08-19T08:13:07;3.60;;;1.27;;
11427;SDS011;5770;44.504;11.346;2022-08-19T08:15:34;1.20;;;1.10;;
11427;SDS011;5770;44.504;11.346;2022-08-19T08:18:02;2.67;;;1.35;;
11427;SDS011;5770;44.504;11.346;2022-08-19T08:20:29;2.05;;;1.30;;
11427;SDS011;5770;44.504;11.346;2022-08-19T08:22:57;3.05;;;1.10;;
11427;SDS011;5770;44.504;11.346;2022-08-19T08:25:42;4.07;;;1.38;;
11427;SDS011;5770;44.504;11.346;2022-08-19T08:28:09;3.45;;;1.33;;
11427;SDS011;5770;44.504;11.346;2022-08-19T08:30:36;2.33;;;1.40;;
11427;SDS011;5770;44.504;11.346;2022-08-19T08:33:06;1.33;;;1.17;;
11427;SDS011;5770;44.504;11.346;2022-08-19T08:35:33;4.75;;;1.30;;
11427;SDS011;5770;44.504;11.346;2022-08-19T08:38:02;3.95;;;1.40;;
11427;SDS011;5770;44.504;11.346;2022-08-19T08:40:31;2.30;;;1.30;;
11427;SDS011;5770;44.504;11.346;2022-08-19T08:43:06;2.90;;;1.52;;
11427;SDS011;5770;44.504;11.346;2022-08-19T08:45:36;3.47;;;1.60;;
11427;SDS011;5770;44.504;11.346;2022-08-19T08:48:13;1.55;;;1.45;;
11427;SDS011;5770;44.504;11.346;2022-08-19T08:50:44;3.67;;;2.10;;
11427;SDS011;5770;44.504;11.346;2022-08-19T08:53:15;3.47;;;2.15;;
11427;SDS011;5770;44.504;11.346;2022-08-19T08:55:43;3.35;;;2.17;;
11427;SDS011;5770;44.504;11.346;2022-08-19T08:58:13;3.05;;;1.92;;
11427;SDS011;5770;44.504;11.346;2022-08-19T09:00:46;4.60;;;2.20;;
11427;SDS011;5770;44.504;11.346;2022-08-19T09:03:16;2.85;;;2.00;;
11427;SDS011;5770;44.504;11.346;2022-08-19T09:05:48;2.17;;;1.63;;
11427;SDS011;5770;44.504;11.346;2022-08-19T09:08:25;2.78;;;1.80;;
11427;SDS011;5770;44.504;11.346;2022-08-19T09:10:59;2.92;;;1.83;;
11427;SDS011;5770;44.504;11.346;2022-08-19T09:13:32;3.13;;;2.03;;
11427;SDS011;5770;44.504;11.346;2022-08-19T09:16:05;6.00;;;1.80;;
11427;SDS011;5770;44.504;11.346;2022-08-19T09:18:41;4.45;;;1.95;;
11427;SDS011;5770;44.504;11.346;2022-08-19T09:21:11;2.78;;;1.67;;
11427;SDS011;5770;44.504;11.346;2022-08-19T09:23:40;2.78;;;1.70;;
11427;SDS011;5770;44.504;11.346;2022-08-19T09:26:08;2.45;;;1.80;;
11427;SDS011;5770;44.504;11.346;2022-08-19T09:28:38;3.28;;;1.92;;
11427;SDS011;5770;44.504;11.346;2022-08-19T09:31:07;2.50;;;1.90;;
11427;SDS011;5770;44.504;11.346;2022-08-19T09:33:34;4.43;;;1.80;;
11427;SDS011;5770;44.504;11.346;2022-08-19T09:36:02;2.53;;;1.88;;
11427;SDS011;5770;44.504;11.346;2022-08-19T09:38:32;3.30;;;1.70;;
11427;SDS011;5770;44.504;11.346;2022-08-19T09:41:03;4.95;;;2.15;;
11427;SDS011;5770;44.504;11.346;2022-08-19T09:43:31;3.92;;;2.05;;
11427;SDS011;5770;44.504;11.346;2022-08-19T09:45:59;4.20;;;1.90;;
11427;SDS011;5770;44.504;11.346;2022-08-19T09:48:26;3.72;;;1.83;;
11427;SDS011;5770;44.504;11.346;2022-08-19T09:50:53;2.67;;;1.90;;
11427;SDS011;5770;44.504;11.346;2022-08-19T09:53:20;4.72;;;1.90;;
11427;SDS011;5770;44.504;11.346;2022-08-19T09:55:48;7.15;;;1.70;;
11427;SDS011;5770;44.504;11.346;2022-08-19T09:58:16;5.38;;;1.55;;
11427;SDS011;5770;44.504;11.346;2022-08-19T10:00:43;2.55;;;2.05;;
11427;SDS011;5770;44.504;11.346;2022-08-19T10:03:11;3.22;;;2.03;;
11427;SDS011;5770;44.504;11.346;2022-08-19T10:05:38;2.78;;;1.90;;
11427;SDS011;5770;44.504;11.346;2022-08-19T10:08:15;2.92;;;1.80;;
11427;SDS011;5770;44.504;11.346;2022-08-19T10:10:44;3.00;;;1.65;;
11427;SDS011;5770;44.504;11.346;2022-08-19T10:13:11;4.18;;;1.45;;
11427;SDS011;5770;44.504;11.346;2022-08-19T10:15:41;2.95;;;1.50;;
11427;SDS011;5770;44.504;11.346;2022-08-19T10:18:08;2.13;;;1.58;;
11427;SDS011;5770;44.504;11.346;2022-08-19T10:20:36;3.30;;;1.95;;
11427;SDS011;5770;44.504;11.346;2022-08-19T10:23:03;2.45;;;1.90;;
11427;SDS011;5770;44.504;11.346;2022-08-19T10:25:31;4.15;;;1.80;;
11427;SDS011;5770;44.504;11.346;2022-08-19T10:28:00;3.28;;;1.65;;
11427;SDS011;5770;44.504;11.346;2022-08-19T10:30:27;5.10;;;1.80;;
11427;SDS011;5770;44.504;11.346;2022-08-19T10:32:55;3.17;;;1.58;;
11427;SDS011;5770;44.504;11.346;2022-08-19T10:35:22;3.30;;;1.90;;
11427;SDS011;5770;44.504;11.346;2022-08-19T10:37:51;4.05;;;2.08;;
11427;SDS011;5770;44.504;11.346;2022-08-19T10:40:18;5.53;;;1.90;;
11427;SDS011;5770;44.504;11.346;2022-08-19T10:42:46;3.38;;;2.42;;
11427;SDS011;5770;44.504;11.346;2022-08-19T10:45:13;3.83;;;1.92;;
11427;SDS011;5770;44.504;11.346;2022-08-19T10:47:40;2.72;;;1.90;;
11427;SDS011;5770;44.504;11.346;2022-08-19T10:50:08;3.03;;;1.67;;
11427;SDS011;5770;44.504;11.346;2022-08-19T10:52:53;3.80;;;2.00;;
11427;SDS011;5770;44.504;11.346;2022-08-19T10:55:20;4.95;;;1.70;;
11427;SDS011;5770;44.504;11.346;2022-08-19T10:58:10;3.67;;;1.60;;
11427;SDS011;5770;44.504;11.346;2022-08-19T11:00:38;2.63;;;1.60;;
11427;SDS011;5770;44.504;11.346;2022-08-19T11:03:07;2.40;;;1.60;;
11427;SDS011;5770;44.504;11.346;2022-08-19T11:05:35;2.85;;;1.90;;
11427;SDS011;5770;44.504;11.346;2022-08-19T11:08:03;2.50;;;1.88;;
11427;SDS011;5770;44.504;11.346;2022-08-19T11:10:32;3.30;;;1.52;;
11427;SDS011;5770;44.504;11.346;2022-08-19T11:12:59;2.78;;;1.60;;
11427;SDS011;5770;44.504;11.346;2022-08-19T11:15:27;2.42;;;1.63;;
11427;SDS011;5770;44.504;11.346;2022-08-19T11:17:54;2.70;;;1.85;;
11427;SDS011;5770;44.504;11.346;2022-08-19T11:20:21;3.60;;;1.83;;
11427;SDS011;5770;44.504;11.346;2022-08-19T11:22:52;3.03;;;1.60;;
11427;SDS011;5770;44.504;11.346;2022-08-19T11:25:19;2.03;;;1.48;;
11427;SDS011;5770;44.504;11.346;2022-08-19T11:27:47;3.38;;;1.50;;
11427;SDS011;5770;44.504;11.346;2022-08-19T11:30:17;3.15;;;1.80;;
11427;SDS011;5770;44.504;11.346;2022-08-19T11:32:44;2.40;;;1.40;;
11427;SDS011;5770;44.504;11.346;2022-08-19T11:35:11;3.00;;;1.50;;
11427;SDS011;5770;44.504;11.346;2022-08-19T11:37:38;2.08;;;1.02;;
11427;SDS011;5770;44.504;11.346;2022-08-19T11:40:08;2.22;;;1.40;;
11427;SDS011;5770;44.504;11.346;2022-08-19T11:42:36;3.33;;;1.15;;
11427;SDS011;5770;44.504;11.346;2022-08-19T11:45:21;2.15;;;1.00;;
11427;SDS011;5770;44.504;11.346;2022-08-19T11:47:48;2.88;;;1.30;;
11427;SDS011;5770;44.504;11.346;2022-08-19T11:50:18;1.48;;;1.13;;
11427;SDS011;5770;44.504;11.346;2022-08-19T11:52:46;2.80;;;1.10;;
11427;SDS011;5770;44.504;11.346;2022-08-19T11:55:16;2.17;;;1.30;;
11427;SDS011;5770;44.504;11.346;2022-08-19T11:57:44;3.83;;;1.30;;
11427;SDS011;5770;44.504;11.346;2022-08-19T12:00:12;2.15;;;1.10;;
11427;SDS011;5770;44.504;11.346;2022-08-19T12:02:40;2.25;;;1.15;;
11427;SDS011;5770;44.504;11.346;2022-08-19T12:05:07;3.10;;;1.40;;
11427;SDS011;5770;44.504;11.346;2022-08-19T12:07:34;6.97;;;1.50;;
11427;SDS011;5770;44.504;11.346;2022-08-19T12:10:02;1.52;;;1.40;;
11427;SDS011;5770;44.504;11.346;2022-08-19T12:12:34;3.42;;;1.40;;
11427;SDS011;5770;44.504;11.346;2022-08-19T12:15:05;2.00;;;1.33;;
11427;SDS011;5770;44.504;11.346;2022-08-19T12:17:33;2.88;;;1.55;;
11427;SDS011;5770;44.504;11.346;2022-08-19T12:20:00;2.80;;;1.45;;
11427;SDS011;5770;44.504;11.346;2022-08-19T12:22:29;2.63;;;1.50;;
11427;SDS011;5770;44.504;11.346;2022-08-19T12:24:56;3.03;;;1.63;;
11427;SDS011;5770;44.504;11.346;2022-08-19T12:27:23;2.72;;;1.40;;
11427;SDS011;5770;44.504;11.346;2022-08-19T12:29:52;2.45;;;1.27;;
11427;SDS011;5770;44.504;11.346;2022-08-19T12:32:19;1.35;;;1.20;;
11427;SDS011;5770;44.504;11.346;2022-08-19T12:34:46;1.13;;;1.02;;
11427;SDS011;5770;44.504;11.346;2022-08-19T12:37:13;1.83;;;1.23;;
11427;SDS011;5770;44.504;11.346;2022-08-19T12:39:42;2.72;;;1.30;;
11427;SDS011;5770;44.504;11.346;2022-08-19T12:42:10;2.25;;;1.20;;
11427;SDS011;5770;44.504;11.346;2022-08-19T12:44:38;2.10;;;1.10;;
11427;SDS011;5770;44.504;11.346;2022-08-19T12:47:08;2.15;;;1.10;;
11427;SDS011;5770;44.504;11.346;2022-08-19T12:49:36;3.25;;;1.00;;
11427;SDS011;5770;44.504;11.346;2022-08-19T12:52:04;3.78;;;1.10;;
11427;SDS011;5770;44.504;11.346;2022-08-19T12:54:32;1.80;;;1.05;;
11427;SDS011;5770;44.504;11.346;2022-08-19T12:56:59;1.10;;;1.00;;
11427;SDS011;5770;44.504;11.346;2022-08-19T12:59:30;2.47;;;1.00;;
11427;SDS011;5770;44.504;11.346;2022-08-19T13:01:57;3.90;;;1.10;;
11427;SDS011;5770;44.504;11.346;2022-08-19T13:04:26;2.97;;;1.13;;
11427;SDS011;5770;44.504;11.346;2022-08-19T13:06:52;1.55;;;0.98;;
11427;SDS011;5770;44.504;11.346;2022-08-19T13:09:19;1.70;;;1.17;;
11427;SDS011;5770;44.504;11.346;2022-08-19T13:11:47;3.22;;;1.20;;
11427;SDS011;5770;44.504;11.346;2022-08-19T13:14:14;1.67;;;0.90;;
11427;SDS011;5770;44.504;11.346;2022-08-19T13:16:41;1.88;;;1.08;;
11427;SDS011;5770;44.504;11.346;2022-08-19T13:19:08;1.83;;;0.90;;
11427;SDS011;5770;44.504;11.346;2022-08-19T13:21:38;1.23;;;1.08;;
11427;SDS011;5770;44.504;11.346;2022-08-19T13:24:05;1.10;;;1.00;;
11427;SDS011;5770;44.504;11.346;2022-08-19T13:26:32;4.53;;;1.10;;
11427;SDS011;5770;44.504;11.346;2022-08-19T13:28:59;1.08;;;0.98;;
11427;SDS011;5770;44.504;11.346;2022-08-19T13:31:44;1.08;;;1.02;;
11427;SDS011;5770;44.504;11.346;2022-08-19T13:34:29;1.13;;;0.85;;
11427;SDS011;5770;44.504;11.346;2022-08-19T13:37:00;1.98;;;1.00;;
11427;SDS011;5770;44.504;11.346;2022-08-19T13:39:29;1.00;;;0.90;;
11427;SDS011;5770;44.504;11.346;2022-08-19T13:41:57;1.90;;;0.98;;
11427;SDS011;5770;44.504;11.346;2022-08-19T13:44:26;1.20;;;1.00;;
11427;SDS011;5770;44.504;11.346;2022-08-19T13:46:55;1.27;;;1.08;;
11427;SDS011;5770;44.504;11.346;2022-08-19T13:49:27;1.40;;;1.08;;
11427;SDS011;5770;44.504;11.346;2022-08-19T13:51:56;1.55;;;1.10;;
11427;SDS011;5770;44.504;11.346;2022-08-19T13:54:24;2.80;;;1.23;;
11427;SDS011;5770;44.504;11.346;2022-08-19T13:56:52;2.35;;;1.00;;
11427;SDS011;5770;44.504;11.346;2022-08-19T13:59:19;1.67;;;1.00;;
11427;SDS011;5770;44.504;11.346;2022-08-19T14:01:46;1.15;;;1.05;;
11427;SDS011;5770;44.504;11.346;2022-08-19T14:04:13;1.88;;;1.15;;
11427;SDS011;5770;44.504;11.346;2022-08-19T14:06:40;1.20;;;1.10;;
11427;SDS011;5770;44.504;11.346;2022-08-19T14:09:07;5.38;;;1.30;;
11427;SDS011;5770;44.504;11.346;2022-08-19T14:11:35;1.88;;;1.05;;
11427;SDS011;5770;44.504;11.346;2022-08-19T14:14:03;1.20;;;0.98;;
11427;SDS011;5770;44.504;11.346;2022-08-19T14:16:30;1.60;;;1.30;;
11427;SDS011;5770;44.504;11.346;2022-08-19T14:18:57;2.47;;;1.27;;
11427;SDS011;5770;44.504;11.346;2022-08-19T14:21:26;1.83;;;1.00;;
11427;SDS011;5770;44.504;11.346;2022-08-19T14:23:53;2.92;;;1.08;;
11427;SDS011;5770;44.504;11.346;2022-08-19T14:26:22;2.58;;;1.30;;
11427;SDS011;5770;44.504;11.346;2022-08-19T14:28:51;1.33;;;0.93;;
11427;SDS011;5770;44.504;11.346;2022-08-19T14:31:22;1.42;;;1.10;;
11427;SDS011;5770;44.504;11.346;2022-08-19T14:33:50;4.00;;;1.23;;
11427;SDS011;5770;44.504;11.346;2022-08-19T14:36:17;2.83;;;1.48;;
11427;SDS011;5770;44.504;11.346;2022-08-19T14:38:45;1.77;;;1.58;;
11427;SDS011;5770;44.504;11.346;2022-08-19T14:41:14;1.98;;;1.20;;
11427;SDS011;5770;44.504;11.346;2022-08-19T14:43:42;1.50;;;1.20;;
11427;SDS011;5770;44.504;11.346;2022-08-19T14:46:13;2.00;;;1.10;;
11427;SDS011;5770;44.504;11.346;2022-08-19T14:48:41;3.22;;;1.58;;
11427;SDS011;5770;44.504;11.346;2022-08-19T14:51:09;1.52;;;1.42;;
11427;SDS011;5770;44.504;11.346;2022-08-19T14:53:36;1.95;;;1.30;;
11427;SDS011;5770;44.504;11.346;2022-08-19T14:56:06;1.45;;;1.23;;